createdAt,value
2022-08-16T00:01:41.076Z,5.90
2022-08-16T00:04:09.634Z,6.27
2022-08-16T00:06:39.440Z,6.32
2022-08-16T00:09:07.372Z,6.45
2022-08-16T00:11:37.560Z,5.85
2022-08-16T00:14:10.126Z,5.43
2022-08-16T00:17:06.039Z,5.80
2022-08-16T00:19:28.382Z,5.85
2022-08-16T00:22:13.790Z,6.43
2022-08-16T00:24:44.854Z,6.20
2022-08-16T00:27:13.175Z,6.07
2022-08-16T00:29:39.768Z,6.17
2022-08-16T00:32:08.052Z,6.78
2022-08-16T00:34:44.637Z,6.07
2022-08-16T00:37:24.542Z,6.72
2022-08-16T00:39:56.866Z,6.70
2022-08-16T00:42:30.762Z,7.30
2022-08-16T00:45:13.577Z,7.60
2022-08-16T00:47:49.534Z,7.70
2022-08-16T00:50:20.969Z,7.43
2022-08-16T00:52:50.838Z,8.57
2022-08-16T00:55:20.279Z,7.67
2022-08-16T00:58:00.134Z,7.60
2022-08-16T01:00:30.417Z,7.88
2022-08-16T01:02:59.754Z,7.28
2022-08-16T01:05:27.403Z,7.60
2022-08-16T01:07:55.043Z,7.67
2022-08-16T01:10:32.653Z,7.40
2022-08-16T01:13:18.610Z,7.05
2022-08-16T01:15:53.901Z,7.28
2022-08-16T01:18:40.720Z,7.45
2022-08-16T01:21:22.100Z,7.80
2022-08-16T01:24:02.387Z,7.95
2022-08-16T01:26:32.021Z,7.90
2022-08-16T01:29:06.611Z,8.13
2022-08-16T01:31:37.599Z,7.88
2022-08-16T01:34:25.262Z,7.57
2022-08-16T01:37:01.383Z,7.53
2022-08-16T01:39:29.536Z,7.38
2022-08-16T01:41:58.314Z,7.38
2022-08-16T01:44:25.595Z,7.63
2022-08-16T01:47:05.542Z,7.63
2022-08-16T01:50:41.175Z,7.57
2022-08-16T01:52:29.603Z,7.80
2022-08-16T01:54:58.182Z,7.22
2022-08-16T01:57:26.843Z,7.75
2022-08-16T01:59:54.622Z,8.00
2022-08-16T02:02:28.669Z,7.45
2022-08-16T02:04:57.438Z,7.93
2022-08-16T02:07:24.803Z,7.30
2022-08-16T02:09:57.080Z,8.05
2022-08-16T02:12:50.763Z,7.37
2022-08-16T02:15:13.127Z,7.50
2022-08-16T02:17:39.721Z,7.90
2022-08-16T02:20:11.660Z,7.32
2022-08-16T02:22:41.388Z,7.18
2022-08-16T02:25:12.063Z,7.57
2022-08-16T02:27:43.374Z,8.07
2022-08-16T02:30:35.856Z,7.63
2022-08-16T02:33:04.912Z,7.70
2022-08-16T02:35:33.324Z,7.18
2022-08-16T02:38:08.446Z,7.43
2022-08-16T02:40:35.776Z,7.68
2022-08-16T02:43:02.713Z,7.68
2022-08-16T02:45:29.462Z,6.97
2022-08-16T02:48:01.827Z,8.00
2022-08-16T02:50:53.584Z,7.37
2022-08-16T02:53:30.330Z,7.93
2022-08-16T02:55:56.800Z,7.53
2022-08-16T02:58:25.125Z,7.75
2022-08-16T03:00:53.298Z,7.78
2022-08-16T03:03:23.126Z,7.97
2022-08-16T03:05:52.518Z,7.60
2022-08-16T03:08:50.652Z,7.75
2022-08-16T03:11:16.585Z,7.93
2022-08-16T03:13:47.735Z,7.57
2022-08-16T03:16:37.635Z,7.70
2022-08-16T03:19:05.445Z,7.75
2022-08-16T03:21:37.459Z,7.97
2022-08-16T03:24:04.302Z,7.85
2022-08-16T03:26:30.767Z,8.50
2022-08-16T03:28:58.517Z,8.33
2022-08-16T03:31:26.093Z,7.97
2022-08-16T03:34:01.419Z,8.32
2022-08-16T03:36:30.597Z,7.53
2022-08-16T03:38:59.481Z,8.50
2022-08-16T03:41:29.464Z,8.67
2022-08-16T03:44:13.573Z,9.35
2022-08-16T03:47:01.069Z,8.73
2022-08-16T03:49:35.808Z,9.75
2022-08-16T03:52:03.991Z,9.30
2022-08-16T03:54:30.514Z,8.77
2022-08-16T03:56:58.588Z,8.98
2022-08-16T03:59:29.333Z,9.10
2022-08-16T04:01:56.651Z,8.55
2022-08-16T04:04:30.974Z,9.10
2022-08-16T04:06:59.421Z,8.80
2022-08-16T04:09:25.873Z,9.80
2022-08-16T04:11:52.971Z,8.63
2022-08-16T04:14:32.915Z,9.35
2022-08-16T04:17:01.698Z,9.43
2022-08-16T04:19:31.745Z,9.30
2022-08-16T04:21:58.505Z,9.20
2022-08-16T04:24:28.655Z,8.23
2022-08-16T04:26:55.610Z,8.40
2022-08-16T04:29:24.947Z,8.70
2022-08-16T04:31:56.220Z,8.23
2022-08-16T04:34:27.679Z,8.55
2022-08-16T04:36:56.668Z,8.68
2022-08-16T04:39:24.290Z,7.82
2022-08-16T04:41:56.869Z,8.18
2022-08-16T04:44:52.849Z,8.27
2022-08-16T04:47:21.706Z,8.50
2022-08-16T04:49:50.573Z,7.90
2022-08-16T04:52:33.936Z,8.38
2022-08-16T04:55:13.485Z,8.57
2022-08-16T04:57:45.767Z,8.13
2022-08-16T05:00:31.136Z,8.05
2022-08-16T05:03:07.518Z,7.85
2022-08-16T05:05:45.166Z,9.63
2022-08-16T05:08:29.044Z,8.38
2022-08-16T05:10:59.978Z,9.27
2022-08-16T05:13:41.636Z,8.90
2022-08-16T05:16:19.958Z,8.88
2022-08-16T05:18:49.559Z,7.85
2022-08-16T05:21:16.047Z,9.07
2022-08-16T05:23:51.441Z,8.27
2022-08-16T05:26:23.057Z,9.68
2022-08-16T05:28:55.181Z,9.18
2022-08-16T05:31:23.538Z,9.65
2022-08-16T05:33:53.623Z,9.93
2022-08-16T05:36:21.646Z,9.03
2022-08-16T05:38:48.893Z,9.57
2022-08-16T05:41:16.965Z,9.27
2022-08-16T05:43:46.858Z,9.00
2022-08-16T05:46:29.715Z,9.10
2022-08-16T05:49:03.137Z,8.93
2022-08-16T05:51:37.669Z,9.48
2022-08-16T05:54:11.617Z,9.40
2022-08-16T05:56:43.140Z,9.23
2022-08-16T05:59:09.887Z,9.65
2022-08-16T06:01:38.311Z,9.80
2022-08-16T06:04:12.664Z,9.75
2022-08-16T06:06:41.220Z,9.13
2022-08-16T06:09:11.697Z,10.35
2022-08-16T06:27:17.885Z,10.63
2022-08-16T06:29:49.871Z,11.37
2022-08-16T06:38:35.795Z,10.73
2022-08-16T08:36:54.201Z,11.52
2022-08-16T08:39:22.684Z,10.80
2022-08-16T08:41:50.401Z,9.75
2022-08-16T08:44:28.897Z,9.60
2022-08-16T08:46:59.748Z,10.48
2022-08-16T08:49:50.728Z,11.20
2022-08-16T08:52:33.652Z,9.90
2022-08-16T08:55:10.780Z,9.60
2022-08-16T08:57:41.719Z,9.20
2022-08-16T09:00:13.836Z,10.73
2022-08-16T09:02:44.552Z,11.25
2022-08-16T09:05:44.143Z,9.88
2022-08-16T09:08:09.524Z,10.02
2022-08-16T09:10:39.501Z,9.80
2022-08-16T09:13:08.051Z,9.32
2022-08-16T09:15:37.315Z,9.40
2022-08-16T09:18:26.548Z,8.85
2022-08-16T09:20:59.026Z,8.43
2022-08-16T09:26:45.464Z,11.35
2022-08-16T09:29:14.401Z,10.68
2022-08-16T09:31:43.020Z,9.13
2022-08-16T09:34:10.573Z,8.45
2022-08-16T09:36:45.209Z,10.80
2022-08-16T09:39:16.131Z,7.80
2022-08-16T09:41:53.247Z,9.20
2022-08-16T09:45:10.884Z,8.85
2022-08-16T09:47:10.379Z,7.68
2022-08-16T09:49:37.571Z,6.57
2022-08-16T09:52:09.566Z,9.15
2022-08-16T09:57:37.512Z,8.95
2022-08-16T10:00:42.359Z,8.60
2022-08-16T10:09:08.250Z,7.78
2022-08-16T10:14:16.676Z,8.05
2022-08-16T10:16:48.792Z,7.70
2022-08-16T10:19:19.377Z,8.23
2022-08-16T10:21:46.465Z,9.75
2022-08-16T10:24:28.463Z,8.32
2022-08-16T10:27:25.229Z,7.18
2022-08-16T10:30:00.185Z,10.53
2022-08-16T10:32:33.801Z,8.20
2022-08-16T10:35:03.390Z,8.82
2022-08-16T10:37:35.706Z,9.30
2022-08-16T10:40:28.198Z,8.23
2022-08-16T10:43:00.799Z,9.03
2022-08-16T10:45:36.509Z,9.82
2022-08-16T10:48:27.319Z,10.40
2022-08-16T11:37:19.400Z,9.35
2022-08-16T11:40:08.324Z,9.55
2022-08-16T11:43:07.667Z,12.53
2022-08-16T12:43:36.223Z,9.20
2022-08-16T12:56:02.583Z,9.32
2022-08-16T13:14:32.087Z,15.70
2022-08-16T13:17:06.824Z,17.25
2022-08-16T13:23:23.636Z,15.25
2022-08-16T13:25:51.132Z,19.33
2022-08-16T13:28:29.659Z,16.03
2022-08-16T13:30:59.290Z,19.02
2022-08-16T13:34:20.293Z,19.63
2022-08-16T13:37:18.768Z,17.65
2022-08-16T15:24:29.967Z,9.67
2022-08-16T15:38:02.202Z,9.50
2022-08-16T15:44:54.742Z,12.15
2022-08-16T17:15:50.132Z,12.40
2022-08-16T17:29:13.953Z,11.65
2022-08-16T17:31:43.449Z,11.18
2022-08-16T17:34:31.007Z,10.20
2022-08-16T17:37:00.759Z,12.35
2022-08-16T17:39:57.289Z,11.70
2022-08-16T17:42:22.481Z,11.65
2022-08-16T17:44:52.289Z,11.38
2022-08-16T17:47:19.077Z,10.90
2022-08-16T17:49:45.686Z,12.38
2022-08-16T17:52:12.942Z,11.52
2022-08-16T17:54:40.847Z,12.20
2022-08-16T17:57:07.437Z,12.93
2022-08-16T17:59:38.329Z,11.67
2022-08-16T18:02:42.381Z,13.25
2022-08-16T18:04:55.671Z,12.73
2022-08-16T18:07:22.948Z,12.50
2022-08-16T18:09:50.076Z,14.07
2022-08-16T18:12:54.238Z,13.47
2022-08-16T18:15:12.563Z,13.27
2022-08-16T18:17:39.690Z,16.23
2022-08-16T18:20:28.093Z,14.95
2022-08-16T18:22:55.122Z,14.02
2022-08-16T18:25:23.868Z,13.53
2022-08-16T18:27:50.405Z,15.07
2022-08-16T18:30:17.656Z,13.55
2022-08-16T18:32:49.747Z,14.00
2022-08-16T18:35:18.456Z,13.13
2022-08-16T18:37:48.828Z,13.57
2022-08-16T18:40:16.836Z,14.10
2022-08-16T18:43:00.121Z,13.50
2022-08-16T18:45:35.460Z,13.45
2022-08-16T18:48:06.267Z,14.02
2022-08-16T18:50:59.992Z,13.90
2022-08-16T18:53:24.268Z,14.77
2022-08-16T18:55:54.687Z,14.05
2022-08-16T18:58:21.606Z,15.32
2022-08-16T19:00:56.653Z,14.00
2022-08-16T19:03:29.029Z,14.57
2022-08-16T19:06:02.321Z,14.63
2022-08-16T19:08:29.838Z,14.25
2022-08-16T19:10:56.368Z,13.80
2022-08-16T19:13:26.340Z,14.05
2022-08-16T19:15:55.252Z,15.97
2022-08-16T19:18:22.487Z,15.30
2022-08-16T19:20:50.310Z,17.40
2022-08-16T19:23:19.698Z,16.50
2022-08-16T19:25:52.828Z,17.00
2022-08-16T19:28:49.226Z,17.17
2022-08-16T19:31:15.956Z,17.00
2022-08-16T19:33:53.820Z,19.27
2022-08-16T19:36:31.753Z,18.63
2022-08-16T19:39:04.904Z,19.50
2022-08-16T19:41:33.430Z,19.97
2022-08-16T19:44:00.943Z,21.17
2022-08-16T19:46:27.562Z,23.17
2022-08-16T19:48:54.245Z,21.40
2022-08-16T19:51:20.770Z,23.00
2022-08-16T19:53:47.315Z,23.30
2022-08-16T19:56:13.839Z,22.20
2022-08-16T19:58:56.096Z,22.08
2022-08-16T20:01:26.916Z,21.27
2022-08-16T20:03:53.475Z,22.52
2022-08-16T20:06:32.365Z,21.83
2022-08-16T20:09:05.874Z,20.75
2022-08-16T20:11:34.153Z,21.80
2022-08-16T20:14:00.710Z,21.73
2022-08-16T20:16:28.568Z,23.40
2022-08-16T20:18:55.103Z,21.13
2022-08-16T20:21:21.718Z,21.83
2022-08-16T20:23:49.577Z,21.92
2022-08-16T20:26:16.274Z,20.73
2022-08-16T20:28:52.483Z,21.88
2022-08-16T20:31:22.154Z,22.17
2022-08-16T20:33:49.780Z,21.35
2022-08-16T20:36:16.869Z,22.23
2022-08-16T20:38:46.810Z,21.63
2022-08-16T20:41:13.684Z,20.48
2022-08-16T20:43:41.404Z,20.87
2022-08-16T20:46:08.245Z,20.27
2022-08-16T20:48:34.784Z,21.15
2022-08-16T20:51:01.581Z,19.88
2022-08-16T20:53:28.068Z,18.73
2022-08-16T20:55:54.642Z,19.83
2022-08-16T20:58:21.160Z,19.15
2022-08-16T21:00:47.972Z,18.42
2022-08-16T21:03:14.809Z,18.42
2022-08-16T21:05:41.478Z,17.77
2022-08-16T21:08:46.524Z,18.93
2022-08-16T21:10:56.502Z,18.55
2022-08-16T21:13:25.577Z,19.98
2022-08-16T21:15:52.609Z,17.70
2022-08-16T21:18:19.239Z,17.83
2022-08-16T21:20:45.769Z,16.97
2022-08-16T21:23:12.262Z,17.58
2022-08-16T21:25:44.834Z,18.58
2022-08-16T21:28:41.348Z,18.23
2022-08-16T21:31:12.136Z,21.02
2022-08-16T21:33:39.071Z,19.73
2022-08-16T21:36:06.007Z,19.88
2022-08-16T21:38:32.657Z,19.70
2022-08-16T21:41:00.445Z,21.83
2022-08-16T21:43:31.683Z,20.80
2022-08-16T21:45:59.665Z,23.07
2022-08-16T21:48:33.517Z,22.60
2022-08-16T21:51:01.373Z,25.15
2022-08-16T21:53:28.399Z,25.13
2022-08-16T21:55:57.207Z,25.45
2022-08-16T21:58:25.307Z,24.37
2022-08-16T22:00:52.273Z,24.60
2022-08-16T22:03:19.066Z,25.45
2022-08-16T22:06:13.365Z,25.60
2022-08-16T22:08:34.187Z,25.45
2022-08-16T22:11:05.915Z,24.03
2022-08-16T22:13:34.726Z,25.08
2022-08-16T22:16:03.990Z,24.35
2022-08-16T22:18:30.538Z,24.70
2022-08-16T22:20:57.200Z,23.95
2022-08-16T22:23:25.621Z,24.77
2022-08-16T22:25:53.976Z,24.55
2022-08-16T22:28:22.420Z,24.15
2022-08-16T22:30:49.859Z,24.77
2022-08-16T22:33:20.708Z,23.75
2022-08-16T22:35:53.545Z,22.87
2022-08-16T22:38:53.701Z,25.20
2022-08-16T22:41:06.934Z,23.40
2022-08-16T22:43:33.527Z,23.98
2022-08-16T22:46:00.568Z,23.25
2022-08-16T22:48:27.242Z,22.97
2022-08-16T22:50:53.780Z,23.77
2022-08-16T22:53:20.614Z,22.80
2022-08-16T22:55:47.207Z,23.02
2022-08-16T22:58:13.948Z,23.67
2022-08-16T23:00:41.045Z,22.70
2022-08-16T23:03:11.403Z,23.10
2022-08-16T23:05:43.546Z,21.98
2022-08-16T23:08:14.888Z,22.15
2022-08-16T23:10:59.306Z,22.10
2022-08-16T23:13:26.812Z,20.20
2022-08-16T23:15:57.209Z,22.10
2022-08-16T23:18:27.056Z,21.50
2022-08-16T23:20:55.838Z,19.63
2022-08-16T23:23:25.652Z,20.38
2022-08-16T23:25:55.311Z,19.40
2022-08-16T23:28:25.488Z,19.25
2022-08-16T23:30:52.979Z,19.65
2022-08-16T23:33:21.041Z,19.00
2022-08-16T23:35:50.790Z,19.85
2022-08-16T23:38:37.922Z,19.50
2022-08-16T23:41:09.314Z,19.88
2022-08-16T23:43:41.849Z,20.35
2022-08-16T23:46:11.707Z,20.67
2022-08-16T23:49:45.088Z,20.80
2022-08-16T23:51:24.709Z,20.87
2022-08-16T23:53:51.280Z,21.00
2022-08-16T23:56:20.276Z,19.92
2022-08-16T23:58:54.336Z,18.88
